sensor_id;sensor_type;location;lat;lon;timestamp;temperature;humidity
10249;DHT22;5169;50.560;9.714;2024-01-07T00:00:06;5.30;99.90
10249;DHT22;5169;50.560;9.714;2024-01-07T00:02:32;5.30;99.90
10249;DHT22;5169;50.560;9.714;2024-01-07T00:04:57;5.30;99.90
10249;DHT22;5169;50.560;9.714;2024-01-07T00:07:25;5.30;99.90
10249;DHT22;5169;50.560;9.714;2024-01-07T00:09:51;5.20;99.90
10249;DHT22;5169;50.560;9.714;2024-01-07T00:12:19;5.10;99.90
10249;DHT22;5169;50.560;9.714;2024-01-07T00:14:45;5.10;99.90
10249;DHT22;5169;50.560;9.714;2024-01-07T00:17:12;5.10;99.90
10249;DHT22;5169;50.560;9.714;2024-01-07T00:19:40;5.00;99.90
10249;DHT22;5169;50.560;9.714;2024-01-07T00:22:08;5.10;99.90
10249;DHT22;5169;50.560;9.714;2024-01-07T00:24:36;4.90;99.90
10249;DHT22;5169;50.560;9.714;2024-01-07T00:27:02;4.90;99.90
10249;DHT22;5169;50.560;9.714;2024-01-07T00:29:33;4.80;99.90
10249;DHT22;5169;50.560;9.714;2024-01-07T00:32:00;4.60;99.90
10249;DHT22;5169;50.560;9.714;2024-01-07T00:34:25;4.50;99.90
10249;DHT22;5169;50.560;9.714;2024-01-07T00:36:53;4.40;99.90
10249;DHT22;5169;50.560;9.714;2024-01-07T00:39:19;4.30;99.90
10249;DHT22;5169;50.560;9.714;2024-01-07T00:41:44;4.30;99.90
10249;DHT22;5169;50.560;9.714;2024-01-07T00:44:10;4.20;99.90
10249;DHT22;5169;50.560;9.714;2024-01-07T00:46:38;4.30;99.90
10249;DHT22;5169;50.560;9.714;2024-01-07T00:49:03;4.30;99.90
10249;DHT22;5169;50.560;9.714;2024-01-07T00:51:31;4.20;99.90
10249;DHT22;5169;50.560;9.714;2024-01-07T00:53:57;4.20;99.90
10249;DHT22;5169;50.560;9.714;2024-01-07T00:56:26;4.10;99.90
10249;DHT22;5169;50.560;9.714;2024-01-07T00:58:52;4.10;99.90
10249;DHT22;5169;50.560;9.714;2024-01-07T01:01:17;4.10;99.90
10249;DHT22;5169;50.560;9.714;2024-01-07T01:03:43;4.10;99.90
10249;DHT22;5169;50.560;9.714;2024-01-07T01:06:09;4.10;99.90
10249;DHT22;5169;50.560;9.714;2024-01-07T01:08:34;4.10;99.90
10249;DHT22;5169;50.560;9.714;2024-01-07T01:11:00;4.00;99.90
10249;DHT22;5169;50.560;9.714;2024-01-07T01:13:25;4.00;99.90
10249;DHT22;5169;50.560;9.714;2024-01-07T01:15:53;4.10;99.90
10249;DHT22;5169;50.560;9.714;2024-01-07T01:18:20;4.00;99.90
10249;DHT22;5169;50.560;9.714;2024-01-07T01:20:46;4.00;99.90
10249;DHT22;5169;50.560;9.714;2024-01-07T01:23:11;4.00;99.90
10249;DHT22;5169;50.560;9.714;2024-01-07T01:25:37;3.90;99.90
10249;DHT22;5169;50.560;9.714;2024-01-07T01:28:05;4.00;99.90
10249;DHT22;5169;50.560;9.714;2024-01-07T01:30:30;4.00;99.90
10249;DHT22;5169;50.560;9.714;2024-01-07T01:32:59;4.10;99.90
10249;DHT22;5169;50.560;9.714;2024-01-07T01:35:25;4.00;99.90
10249;DHT22;5169;50.560;9.714;2024-01-07T01:37:50;3.90;99.90
10249;DHT22;5169;50.560;9.714;2024-01-07T01:40:17;3.90;99.90
10249;DHT22;5169;50.560;9.714;2024-01-07T01:42:45;4.00;99.90
10249;DHT22;5169;50.560;9.714;2024-01-07T01:45:14;3.90;99.90
10249;DHT22;5169;50.560;9.714;2024-01-07T01:47:40;3.90;99.90
10249;DHT22;5169;50.560;9.714;2024-01-07T01:50:07;4.00;99.90
10249;DHT22;5169;50.560;9.714;2024-01-07T01:52:33;3.90;99.90
10249;DHT22;5169;50.560;9.714;2024-01-07T01:55:00;3.80;99.90
10249;DHT22;5169;50.560;9.714;2024-01-07T01:57:33;3.80;99.90
10249;DHT22;5169;50.560;9.714;2024-01-07T02:00:02;3.80;99.90
10249;DHT22;5169;50.560;9.714;2024-01-07T02:02:33;3.70;99.90
10249;DHT22;5169;50.560;9.714;2024-01-07T02:05:02;3.70;99.90
10249;DHT22;5169;50.560;9.714;2024-01-07T02:07:29;3.70;99.90
10249;DHT22;5169;50.560;9.714;2024-01-07T02:09:55;3.70;99.90
10249;DHT22;5169;50.560;9.714;2024-01-07T02:12:21;3.70;99.90
10249;DHT22;5169;50.560;9.714;2024-01-07T02:14:47;3.70;99.90
10249;DHT22;5169;50.560;9.714;2024-01-07T02:17:12;3.70;99.90
10249;DHT22;5169;50.560;9.714;2024-01-07T02:19:40;3.70;99.90
10249;DHT22;5169;50.560;9.714;2024-01-07T02:22:06;3.70;99.90
10249;DHT22;5169;50.560;9.714;2024-01-07T02:24:34;3.70;99.90
10249;DHT22;5169;50.560;9.714;2024-01-07T02:26:59;3.60;99.90
10249;DHT22;5169;50.560;9.714;2024-01-07T02:29:28;3.70;99.90
10249;DHT22;5169;50.560;9.714;2024-01-07T02:31:53;3.60;99.90
10249;DHT22;5169;50.560;9.714;2024-01-07T02:34:21;3.60;99.90
10249;DHT22;5169;50.560;9.714;2024-01-07T02:36:49;3.50;99.90
10249;DHT22;5169;50.560;9.714;2024-01-07T02:39:15;3.40;99.90
10249;DHT22;5169;50.560;9.714;2024-01-07T02:41:43;3.50;99.90
10249;DHT22;5169;50.560;9.714;2024-01-07T02:44:09;3.60;99.90
10249;DHT22;5169;50.560;9.714;2024-01-07T02:46:37;3.60;99.90
10249;DHT22;5169;50.560;9.714;2024-01-07T02:49:02;3.70;99.90
10249;DHT22;5169;50.560;9.714;2024-01-07T02:51:30;3.60;99.90
10249;DHT22;5169;50.560;9.714;2024-01-07T02:53:58;3.60;99.90
10249;DHT22;5169;50.560;9.714;2024-01-07T02:56:24;3.60;99.90
10249;DHT22;5169;50.560;9.714;2024-01-07T02:58:49;3.50;99.90
10249;DHT22;5169;50.560;9.714;2024-01-07T03:01:15;3.40;99.90
10249;DHT22;5169;50.560;9.714;2024-01-07T03:03:43;3.30;99.90
10249;DHT22;5169;50.560;9.714;2024-01-07T03:06:08;3.20;99.90
10249;DHT22;5169;50.560;9.714;2024-01-07T03:08:34;3.10;99.90
10249;DHT22;5169;50.560;9.714;2024-01-07T03:11:04;3.00;99.90
10249;DHT22;5169;50.560;9.714;2024-01-07T03:13:30;3.00;99.90
10249;DHT22;5169;50.560;9.714;2024-01-07T03:15:56;2.90;99.90
10249;DHT22;5169;50.560;9.714;2024-01-07T03:18:24;2.70;99.90
10249;DHT22;5169;50.560;9.714;2024-01-07T03:20:49;2.70;99.90
10249;DHT22;5169;50.560;9.714;2024-01-07T03:23:15;2.60;99.90
10249;DHT22;5169;50.560;9.714;2024-01-07T03:25:41;2.70;99.90
10249;DHT22;5169;50.560;9.714;2024-01-07T03:28:06;2.70;99.90
10249;DHT22;5169;50.560;9.714;2024-01-07T03:30:34;2.60;99.90
10249;DHT22;5169;50.560;9.714;2024-01-07T03:33:00;2.60;99.90
10249;DHT22;5169;50.560;9.714;2024-01-07T03:35:25;2.60;99.90
10249;DHT22;5169;50.560;9.714;2024-01-07T03:37:51;2.60;99.90
10249;DHT22;5169;50.560;9.714;2024-01-07T03:40:19;2.50;99.90
10249;DHT22;5169;50.560;9.714;2024-01-07T03:42:44;2.40;99.90
10249;DHT22;5169;50.560;9.714;2024-01-07T03:45:10;2.30;99.90
10249;DHT22;5169;50.560;9.714;2024-01-07T03:47:35;2.30;99.90
10249;DHT22;5169;50.560;9.714;2024-01-07T03:50:01;2.20;99.90
10249;DHT22;5169;50.560;9.714;2024-01-07T03:52:27;2.30;99.90
10249;DHT22;5169;50.560;9.714;2024-01-07T03:54:53;2.20;99.90
10249;DHT22;5169;50.560;9.714;2024-01-07T03:57:19;2.10;99.90
10249;DHT22;5169;50.560;9.714;2024-01-07T03:59:45;2.20;99.90
10249;DHT22;5169;50.560;9.714;2024-01-07T04:02:10;2.10;99.90
10249;DHT22;5169;50.560;9.714;2024-01-07T04:04:37;2.00;99.90
10249;DHT22;5169;50.560;9.714;2024-01-07T04:07:04;2.00;99.90
10249;DHT22;5169;50.560;9.714;2024-01-07T04:09:32;2.00;99.90
10249;DHT22;5169;50.560;9.714;2024-01-07T04:12:00;1.90;99.90
10249;DHT22;5169;50.560;9.714;2024-01-07T04:14:26;1.90;99.90
10249;DHT22;5169;50.560;9.714;2024-01-07T04:16:53;2.00;99.90
10249;DHT22;5169;50.560;9.714;2024-01-07T04:19:18;2.00;99.90
10249;DHT22;5169;50.560;9.714;2024-01-07T04:21:49;2.00;99.90
10249;DHT22;5169;50.560;9.714;2024-01-07T04:24:15;1.90;99.90
10249;DHT22;5169;50.560;9.714;2024-01-07T04:26:40;1.80;99.90
10249;DHT22;5169;50.560;9.714;2024-01-07T04:29:08;1.80;99.90
10249;DHT22;5169;50.560;9.714;2024-01-07T04:31:36;1.70;99.90
10249;DHT22;5169;50.560;9.714;2024-01-07T04:34:02;1.60;99.90
10249;DHT22;5169;50.560;9.714;2024-01-07T04:36:30;1.70;99.90
10249;DHT22;5169;50.560;9.714;2024-01-07T04:38:55;1.70;99.90
10249;DHT22;5169;50.560;9.714;2024-01-07T04:41:23;1.70;99.90
10249;DHT22;5169;50.560;9.714;2024-01-07T04:43:48;1.60;99.90
10249;DHT22;5169;50.560;9.714;2024-01-07T04:46:14;1.60;99.90
10249;DHT22;5169;50.560;9.714;2024-01-07T04:48:40;1.60;99.90
10249;DHT22;5169;50.560;9.714;2024-01-07T04:51:07;1.60;99.90
10249;DHT22;5169;50.560;9.714;2024-01-07T04:53:33;1.50;99.90
10249;DHT22;5169;50.560;9.714;2024-01-07T04:55:59;1.50;99.90
10249;DHT22;5169;50.560;9.714;2024-01-07T04:58:27;1.60;99.90
10249;DHT22;5169;50.560;9.714;2024-01-07T05:00:55;1.60;99.90
10249;DHT22;5169;50.560;9.714;2024-01-07T05:03:23;1.50;99.90
10249;DHT22;5169;50.560;9.714;2024-01-07T05:05:51;1.50;99.90
10249;DHT22;5169;50.560;9.714;2024-01-07T05:08:16;1.50;99.90
10249;DHT22;5169;50.560;9.714;2024-01-07T05:10:42;1.50;99.90
10249;DHT22;5169;50.560;9.714;2024-01-07T05:13:07;1.50;99.90
10249;DHT22;5169;50.560;9.714;2024-01-07T05:15:33;1.50;99.90
10249;DHT22;5169;50.560;9.714;2024-01-07T05:18:09;1.50;99.90
10249;DHT22;5169;50.560;9.714;2024-01-07T05:20:35;1.50;99.90
10249;DHT22;5169;50.560;9.714;2024-01-07T05:23:01;1.50;99.90
10249;DHT22;5169;50.560;9.714;2024-01-07T05:25:26;1.50;99.90
10249;DHT22;5169;50.560;9.714;2024-01-07T05:27:52;1.50;99.90
10249;DHT22;5169;50.560;9.714;2024-01-07T05:30:17;1.60;99.90
10249;DHT22;5169;50.560;9.714;2024-01-07T05:32:43;1.50;99.90
10249;DHT22;5169;50.560;9.714;2024-01-07T05:35:14;1.50;99.90
10249;DHT22;5169;50.560;9.714;2024-01-07T05:37:39;1.60;99.90
10249;DHT22;5169;50.560;9.714;2024-01-07T05:40:08;1.60;99.90
10249;DHT22;5169;50.560;9.714;2024-01-07T05:42:36;1.60;99.90
10249;DHT22;5169;50.560;9.714;2024-01-07T05:45:01;1.60;99.90
10249;DHT22;5169;50.560;9.714;2024-01-07T05:47:28;1.50;99.90
10249;DHT22;5169;50.560;9.714;2024-01-07T05:49:53;1.50;99.90
10249;DHT22;5169;50.560;9.714;2024-01-07T05:52:19;1.50;99.90
10249;DHT22;5169;50.560;9.714;2024-01-07T05:54:47;1.50;99.90
10249;DHT22;5169;50.560;9.714;2024-01-07T05:57:12;1.50;99.90
10249;DHT22;5169;50.560;9.714;2024-01-07T05:59:38;1.50;99.90
10249;DHT22;5169;50.560;9.714;2024-01-07T06:02:03;1.40;99.90
10249;DHT22;5169;50.560;9.714;2024-01-07T06:04:29;1.50;99.90
10249;DHT22;5169;50.560;9.714;2024-01-07T06:07:02;1.50;99.90
10249;DHT22;5169;50.560;9.714;2024-01-07T06:09:27;1.40;99.90
10249;DHT22;5169;50.560;9.714;2024-01-07T06:11:55;1.30;99.90
10249;DHT22;5169;50.560;9.714;2024-01-07T06:14:23;1.30;99.90
10249;DHT22;5169;50.560;9.714;2024-01-07T06:16:49;1.20;99.90
10249;DHT22;5169;50.560;9.714;2024-01-07T06:19:21;1.20;99.90
10249;DHT22;5169;50.560;9.714;2024-01-07T06:21:47;1.20;99.90
10249;DHT22;5169;50.560;9.714;2024-01-07T06:24:12;1.10;99.90
10249;DHT22;5169;50.560;9.714;2024-01-07T06:26:38;1.10;99.90
10249;DHT22;5169;50.560;9.714;2024-01-07T06:29:05;1.10;99.90
10249;DHT22;5169;50.560;9.714;2024-01-07T06:31:31;1.10;99.90
10249;DHT22;5169;50.560;9.714;2024-01-07T06:33:56;1.20;99.90
10249;DHT22;5169;50.560;9.714;2024-01-07T06:36:26;1.10;99.90
10249;DHT22;5169;50.560;9.714;2024-01-07T06:38:52;1.00;99.90
10249;DHT22;5169;50.560;9.714;2024-01-07T06:41:20;0.90;99.90
10249;DHT22;5169;50.560;9.714;2024-01-07T06:43:46;0.90;99.90
10249;DHT22;5169;50.560;9.714;2024-01-07T06:46:11;0.90;99.90
10249;DHT22;5169;50.560;9.714;2024-01-07T06:48:37;1.00;99.90
10249;DHT22;5169;50.560;9.714;2024-01-07T06:51:05;0.90;99.90
10249;DHT22;5169;50.560;9.714;2024-01-07T06:53:31;0.90;99.90
10249;DHT22;5169;50.560;9.714;2024-01-07T06:55:56;0.90;99.90
10249;DHT22;5169;50.560;9.714;2024-01-07T06:58:24;0.80;99.90
10249;DHT22;5169;50.560;9.714;2024-01-07T07:00:54;0.90;99.90
10249;DHT22;5169;50.560;9.714;2024-01-07T07:03:22;0.80;99.90
10249;DHT22;5169;50.560;9.714;2024-01-07T07:05:53;0.80;99.90
10249;DHT22;5169;50.560;9.714;2024-01-07T07:08:19;0.90;99.90
10249;DHT22;5169;50.560;9.714;2024-01-07T07:10:47;0.80;99.90
10249;DHT22;5169;50.560;9.714;2024-01-07T07:13:12;0.90;99.90
10249;DHT22;5169;50.560;9.714;2024-01-07T07:15:38;0.80;99.90
10249;DHT22;5169;50.560;9.714;2024-01-07T07:18:04;0.80;99.90
10249;DHT22;5169;50.560;9.714;2024-01-07T07:20:29;0.80;99.90
10249;DHT22;5169;50.560;9.714;2024-01-07T07:22:55;0.80;99.90
10249;DHT22;5169;50.560;9.714;2024-01-07T07:25:20;0.80;99.90
10249;DHT22;5169;50.560;9.714;2024-01-07T07:27:46;0.80;99.90
10249;DHT22;5169;50.560;9.714;2024-01-07T07:30:12;0.80;99.90
10249;DHT22;5169;50.560;9.714;2024-01-07T07:32:43;0.80;99.90
10249;DHT22;5169;50.560;9.714;2024-01-07T07:35:09;0.70;99.90
10249;DHT22;5169;50.560;9.714;2024-01-07T07:37:35;0.60;99.90
10249;DHT22;5169;50.560;9.714;2024-01-07T07:40:01;0.50;99.90
10249;DHT22;5169;50.560;9.714;2024-01-07T07:42:26;0.50;99.90
10249;DHT22;5169;50.560;9.714;2024-01-07T07:44:52;0.50;99.90
10249;DHT22;5169;50.560;9.714;2024-01-07T07:47:18;0.40;99.90
10249;DHT22;5169;50.560;9.714;2024-01-07T07:49:46;0.40;99.90
10249;DHT22;5169;50.560;9.714;2024-01-07T07:52:11;0.30;99.90
10249;DHT22;5169;50.560;9.714;2024-01-07T07:54:39;0.20;99.90
10249;DHT22;5169;50.560;9.714;2024-01-07T07:57:05;0.20;99.90
10249;DHT22;5169;50.560;9.714;2024-01-07T07:59:31;0.30;99.90
10249;DHT22;5169;50.560;9.714;2024-01-07T08:01:56;0.20;99.90
10249;DHT22;5169;50.560;9.714;2024-01-07T08:04:22;0.20;99.90
10249;DHT22;5169;50.560;9.714;2024-01-07T08:06:48;0.20;99.90
10249;DHT22;5169;50.560;9.714;2024-01-07T08:09:13;0.20;99.90
10249;DHT22;5169;50.560;9.714;2024-01-07T08:11:41;0.20;99.90
10249;DHT22;5169;50.560;9.714;2024-01-07T08:14:06;0.30;99.90
10249;DHT22;5169;50.560;9.714;2024-01-07T08:16:32;0.40;99.90
10249;DHT22;5169;50.560;9.714;2024-01-07T08:18:58;0.50;99.90
10249;DHT22;5169;50.560;9.714;2024-01-07T08:21:24;0.40;99.90
10249;DHT22;5169;50.560;9.714;2024-01-07T08:23:50;0.40;99.90
10249;DHT22;5169;50.560;9.714;2024-01-07T08:26:22;0.50;99.90
10249;DHT22;5169;50.560;9.714;2024-01-07T08:28:48;0.40;99.90
10249;DHT22;5169;50.560;9.714;2024-01-07T08:31:14;0.40;99.90
10249;DHT22;5169;50.560;9.714;2024-01-07T08:33:39;0.40;99.90
10249;DHT22;5169;50.560;9.714;2024-01-07T08:36:05;0.30;99.90
10249;DHT22;5169;50.560;9.714;2024-01-07T08:38:33;0.30;99.90
10249;DHT22;5169;50.560;9.714;2024-01-07T08:40:59;0.30;99.90
10249;DHT22;5169;50.560;9.714;2024-01-07T08:43:27;0.40;99.90
10249;DHT22;5169;50.560;9.714;2024-01-07T08:45:55;0.40;99.90
10249;DHT22;5169;50.560;9.714;2024-01-07T08:48:20;0.50;99.90
10249;DHT22;5169;50.560;9.714;2024-01-07T08:50:48;0.50;99.90
10249;DHT22;5169;50.560;9.714;2024-01-07T08:53:15;0.50;99.90
10249;DHT22;5169;50.560;9.714;2024-01-07T08:55:45;0.40;99.90
10249;DHT22;5169;50.560;9.714;2024-01-07T08:58:11;0.30;99.90
10249;DHT22;5169;50.560;9.714;2024-01-07T09:00:37;0.20;99.90
10249;DHT22;5169;50.560;9.714;2024-01-07T09:03:03;0.20;99.90
10249;DHT22;5169;50.560;9.714;2024-01-07T09:05:31;0.30;99.90
10249;DHT22;5169;50.560;9.714;2024-01-07T09:08:01;0.30;99.90
10249;DHT22;5169;50.560;9.714;2024-01-07T09:10:29;0.20;99.90
10249;DHT22;5169;50.560;9.714;2024-01-07T09:12:55;0.20;99.90
10249;DHT22;5169;50.560;9.714;2024-01-07T09:15:25;0.20;99.90
10249;DHT22;5169;50.560;9.714;2024-01-07T09:17:51;0.20;99.90
10249;DHT22;5169;50.560;9.714;2024-01-07T09:20:16;0.20;99.90
10249;DHT22;5169;50.560;9.714;2024-01-07T09:22:44;0.20;99.90
10249;DHT22;5169;50.560;9.714;2024-01-07T09:25:10;0.20;99.90
10249;DHT22;5169;50.560;9.714;2024-01-07T09:27:38;0.10;99.90
10249;DHT22;5169;50.560;9.714;2024-01-07T09:30:03;0.10;99.90
10249;DHT22;5169;50.560;9.714;2024-01-07T09:32:29;0.10;99.90
10249;DHT22;5169;50.560;9.714;2024-01-07T09:34:55;0.10;99.90
10249;DHT22;5169;50.560;9.714;2024-01-07T09:37:23;0.00;99.90
10249;DHT22;5169;50.560;9.714;2024-01-07T09:39:51;0.10;99.90
10249;DHT22;5169;50.560;9.714;2024-01-07T09:42:20;0.10;99.90
10249;DHT22;5169;50.560;9.714;2024-01-07T09:44:48;0.10;99.90
10249;DHT22;5169;50.560;9.714;2024-01-07T09:47:20;0.10;99.90
10249;DHT22;5169;50.560;9.714;2024-01-07T09:49:49;0.10;99.90
10249;DHT22;5169;50.560;9.714;2024-01-07T09:52:14;0.00;99.90
10249;DHT22;5169;50.560;9.714;2024-01-07T09:54:40;0.00;99.90
10249;DHT22;5169;50.560;9.714;2024-01-07T09:57:07;0.00;99.90
10249;DHT22;5169;50.560;9.714;2024-01-07T09:59:36;-0.10;99.90
10249;DHT22;5169;50.560;9.714;2024-01-07T10:02:02;-0.20;99.90
10249;DHT22;5169;50.560;9.714;2024-01-07T10:04:30;-0.30;99.90
10249;DHT22;5169;50.560;9.714;2024-01-07T10:06:57;-0.30;99.90
10249;DHT22;5169;50.560;9.714;2024-01-07T10:09:23;-0.20;99.90
10249;DHT22;5169;50.560;9.714;2024-01-07T10:11:52;-0.30;99.90
10249;DHT22;5169;50.560;9.714;2024-01-07T10:14:20;-0.20;99.90
10249;DHT22;5169;50.560;9.714;2024-01-07T10:16:50;-0.30;99.90
10249;DHT22;5169;50.560;9.714;2024-01-07T10:19:25;-0.40;99.90
10249;DHT22;5169;50.560;9.714;2024-01-07T10:22:04;-0.40;99.90
10249;DHT22;5169;50.560;9.714;2024-01-07T10:24:44;-0.50;99.90
10249;DHT22;5169;50.560;9.714;2024-01-07T10:27:09;-0.50;99.90
10249;DHT22;5169;50.560;9.714;2024-01-07T10:29:36;-0.40;99.90
10249;DHT22;5169;50.560;9.714;2024-01-07T10:32:02;-0.40;99.90
10249;DHT22;5169;50.560;9.714;2024-01-07T10:34:34;-0.30;99.90
10249;DHT22;5169;50.560;9.714;2024-01-07T10:37:04;-0.30;99.90
10249;DHT22;5169;50.560;9.714;2024-01-07T10:39:34;-0.30;99.90
10249;DHT22;5169;50.560;9.714;2024-01-07T10:42:00;-0.30;99.90
10249;DHT22;5169;50.560;9.714;2024-01-07T10:44:31;-0.30;99.90
10249;DHT22;5169;50.560;9.714;2024-01-07T10:46:59;-0.30;99.90
10249;DHT22;5169;50.560;9.714;2024-01-07T10:49:27;-0.40;99.90
10249;DHT22;5169;50.560;9.714;2024-01-07T10:52:00;-0.30;99.90
10249;DHT22;5169;50.560;9.714;2024-01-07T10:54:29;-0.30;99.90
10249;DHT22;5169;50.560;9.714;2024-01-07T10:56:59;-0.30;99.90
10249;DHT22;5169;50.560;9.714;2024-01-07T10:59:31;-0.30;99.90
10249;DHT22;5169;50.560;9.714;2024-01-07T11:02:00;-0.30;99.90
10249;DHT22;5169;50.560;9.714;2024-01-07T11:08:04;-0.40;99.90
10249;DHT22;5169;50.560;9.714;2024-01-07T11:10:51;-0.40;99.90
10249;DHT22;5169;50.560;9.714;2024-01-07T11:13:38;-0.30;99.90
10249;DHT22;5169;50.560;9.714;2024-01-07T11:16:05;-0.30;99.90
10249;DHT22;5169;50.560;9.714;2024-01-07T11:18:31;-0.30;99.90
10249;DHT22;5169;50.560;9.714;2024-01-07T11:21:00;-0.50;99.90
10249;DHT22;5169;50.560;9.714;2024-01-07T11:23:35;-0.50;99.90
10249;DHT22;5169;50.560;9.714;2024-01-07T11:26:08;-0.50;99.90
10249;DHT22;5169;50.560;9.714;2024-01-07T11:28:46;-0.60;99.90
10249;DHT22;5169;50.560;9.714;2024-01-07T11:31:17;-0.60;99.90
10249;DHT22;5169;50.560;9.714;2024-01-07T11:33:49;-0.60;99.90
10249;DHT22;5169;50.560;9.714;2024-01-07T11:36:18;-0.60;99.90
10249;DHT22;5169;50.560;9.714;2024-01-07T11:38:44;-0.60;99.90
10249;DHT22;5169;50.560;9.714;2024-01-07T11:41:16;-0.60;99.90
10249;DHT22;5169;50.560;9.714;2024-01-07T11:44:10;-0.50;99.90
10249;DHT22;5169;50.560;9.714;2024-01-07T11:46:37;-0.50;99.90
10249;DHT22;5169;50.560;9.714;2024-01-07T11:49:03;-0.40;99.90
10249;DHT22;5169;50.560;9.714;2024-01-07T11:51:30;-0.30;99.90
10249;DHT22;5169;50.560;9.714;2024-01-07T11:53:57;-0.40;99.90
10249;DHT22;5169;50.560;9.714;2024-01-07T11:56:24;-0.40;99.90
10249;DHT22;5169;50.560;9.714;2024-01-07T11:58:49;-0.40;99.90
10249;DHT22;5169;50.560;9.714;2024-01-07T12:01:15;-0.50;99.90
10249;DHT22;5169;50.560;9.714;2024-01-07T12:03:46;-0.50;99.90
10249;DHT22;5169;50.560;9.714;2024-01-07T12:06:12;-0.60;99.90
10249;DHT22;5169;50.560;9.714;2024-01-07T12:08:42;-0.60;99.90
10249;DHT22;5169;50.560;9.714;2024-01-07T12:11:12;-0.60;99.90
10249;DHT22;5169;50.560;9.714;2024-01-07T12:13:40;-0.50;99.90
10249;DHT22;5169;50.560;9.714;2024-01-07T12:16:07;-0.50;99.90
10249;DHT22;5169;50.560;9.714;2024-01-07T12:18:35;-0.80;99.90
10249;DHT22;5169;50.560;9.714;2024-01-07T12:21:01;-0.80;99.90
10249;DHT22;5169;50.560;9.714;2024-01-07T12:23:27;-0.80;99.90
10249;DHT22;5169;50.560;9.714;2024-01-07T12:25:53;-0.90;99.90
10249;DHT22;5169;50.560;9.714;2024-01-07T12:28:21;-0.90;99.90
10249;DHT22;5169;50.560;9.714;2024-01-07T12:30:48;-0.90;99.90
10249;DHT22;5169;50.560;9.714;2024-01-07T12:33:19;-0.90;99.90
10249;DHT22;5169;50.560;9.714;2024-01-07T12:35:48;-0.70;99.90
10249;DHT22;5169;50.560;9.714;2024-01-07T12:38:16;-0.60;99.90
10249;DHT22;5169;50.560;9.714;2024-01-07T12:40:47;-0.60;99.90
10249;DHT22;5169;50.560;9.714;2024-01-07T12:43:13;-0.50;99.90
10249;DHT22;5169;50.560;9.714;2024-01-07T12:45:39;-0.40;99.90
10249;DHT22;5169;50.560;9.714;2024-01-07T12:48:04;-0.50;99.90
10249;DHT22;5169;50.560;9.714;2024-01-07T12:50:32;-0.40;99.90
10249;DHT22;5169;50.560;9.714;2024-01-07T12:52:58;-0.50;99.90
10249;DHT22;5169;50.560;9.714;2024-01-07T12:55:24;-0.60;99.90
10249;DHT22;5169;50.560;9.714;2024-01-07T12:57:51;-0.80;99.90
10249;DHT22;5169;50.560;9.714;2024-01-07T13:00:17;-0.80;99.90
10249;DHT22;5169;50.560;9.714;2024-01-07T13:02:48;-0.80;99.90
10249;DHT22;5169;50.560;9.714;2024-01-07T13:05:14;-0.90;99.90
10249;DHT22;5169;50.560;9.714;2024-01-07T13:07:40;-0.90;99.90
10249;DHT22;5169;50.560;9.714;2024-01-07T13:10:06;-0.90;99.90
10249;DHT22;5169;50.560;9.714;2024-01-07T13:12:36;-1.00;99.90
10249;DHT22;5169;50.560;9.714;2024-01-07T13:15:03;-1.10;99.90
10249;DHT22;5169;50.560;9.714;2024-01-07T13:17:29;-1.20;99.90
10249;DHT22;5169;50.560;9.714;2024-01-07T13:19:59;-1.30;99.90
10249;DHT22;5169;50.560;9.714;2024-01-07T13:22:24;-1.20;99.90
10249;DHT22;5169;50.560;9.714;2024-01-07T13:24:52;-1.20;99.90
10249;DHT22;5169;50.560;9.714;2024-01-07T13:27:20;-1.10;99.90
10249;DHT22;5169;50.560;9.714;2024-01-07T13:29:47;-1.10;99.90
10249;DHT22;5169;50.560;9.714;2024-01-07T13:32:15;-1.10;99.90
10249;DHT22;5169;50.560;9.714;2024-01-07T13:34:46;-1.00;99.90
10249;DHT22;5169;50.560;9.714;2024-01-07T13:37:12;-1.00;99.90
10249;DHT22;5169;50.560;9.714;2024-01-07T13:39:37;-1.00;99.90
10249;DHT22;5169;50.560;9.714;2024-01-07T13:42:06;-1.10;99.90
10249;DHT22;5169;50.560;9.714;2024-01-07T13:44:31;-1.00;99.90
10249;DHT22;5169;50.560;9.714;2024-01-07T13:47:00;-1.00;99.90
10249;DHT22;5169;50.560;9.714;2024-01-07T13:49:26;-1.00;99.90
10249;DHT22;5169;50.560;9.714;2024-01-07T13:51:53;-1.20;99.90
10249;DHT22;5169;50.560;9.714;2024-01-07T13:54:19;-1.20;99.90
10249;DHT22;5169;50.560;9.714;2024-01-07T13:56:45;-1.30;99.90
10249;DHT22;5169;50.560;9.714;2024-01-07T13:59:11;-1.40;99.90
10249;DHT22;5169;50.560;9.714;2024-01-07T14:01:37;-1.40;99.90
10249;DHT22;5169;50.560;9.714;2024-01-07T14:04:03;-1.40;99.90
10249;DHT22;5169;50.560;9.714;2024-01-07T14:06:32;-1.50;99.90
10249;DHT22;5169;50.560;9.714;2024-01-07T14:08:59;-1.50;99.90
10249;DHT22;5169;50.560;9.714;2024-01-07T14:11:28;-1.60;99.90
10249;DHT22;5169;50.560;9.714;2024-01-07T14:13:54;-1.70;99.90
10249;DHT22;5169;50.560;9.714;2024-01-07T14:16:24;-1.70;99.90
10249;DHT22;5169;50.560;9.714;2024-01-07T14:18:50;-1.60;99.90
10249;DHT22;5169;50.560;9.714;2024-01-07T14:21:15;-1.70;99.90
10249;DHT22;5169;50.560;9.714;2024-01-07T14:23:41;-1.90;99.90
10249;DHT22;5169;50.560;9.714;2024-01-07T14:26:09;-1.90;99.90
10249;DHT22;5169;50.560;9.714;2024-01-07T14:28:37;-1.80;99.90
10249;DHT22;5169;50.560;9.714;2024-01-07T14:31:05;-1.80;99.90
10249;DHT22;5169;50.560;9.714;2024-01-07T14:33:31;-1.70;99.90
10249;DHT22;5169;50.560;9.714;2024-01-07T14:35:58;-1.70;99.90
10249;DHT22;5169;50.560;9.714;2024-01-07T14:38:25;-1.80;99.90
10249;DHT22;5169;50.560;9.714;2024-01-07T14:40:53;-1.70;99.90
10249;DHT22;5169;50.560;9.714;2024-01-07T14:43:18;-1.90;99.90
10249;DHT22;5169;50.560;9.714;2024-01-07T14:45:44;-2.00;99.90
10249;DHT22;5169;50.560;9.714;2024-01-07T14:48:10;-2.00;99.90
10249;DHT22;5169;50.560;9.714;2024-01-07T14:50:39;-2.00;99.90
10249;DHT22;5169;50.560;9.714;2024-01-07T14:53:05;-2.10;99.90
10249;DHT22;5169;50.560;9.714;2024-01-07T14:55:30;-2.20;99.90
10249;DHT22;5169;50.560;9.714;2024-01-07T14:57:56;-2.20;99.90
10249;DHT22;5169;50.560;9.714;2024-01-07T15:00:24;-2.30;99.90
10249;DHT22;5169;50.560;9.714;2024-01-07T15:02:49;-2.30;99.90
10249;DHT22;5169;50.560;9.714;2024-01-07T15:05:18;-2.20;99.90
10249;DHT22;5169;50.560;9.714;2024-01-07T15:07:44;-2.20;99.90
10249;DHT22;5169;50.560;9.714;2024-01-07T15:10:14;-2.20;99.90
10249;DHT22;5169;50.560;9.714;2024-01-07T15:12:40;-2.20;99.90
10249;DHT22;5169;50.560;9.714;2024-01-07T15:15:05;-2.20;99.90
10249;DHT22;5169;50.560;9.714;2024-01-07T15:17:32;-2.20;99.90
10249;DHT22;5169;50.560;9.714;2024-01-07T15:19:57;-2.10;99.90
10249;DHT22;5169;50.560;9.714;2024-01-07T15:22:26;-2.20;99.90
10249;DHT22;5169;50.560;9.714;2024-01-07T15:24:51;-2.00;99.90
10249;DHT22;5169;50.560;9.714;2024-01-07T15:27:17;-2.10;99.90
10249;DHT22;5169;50.560;9.714;2024-01-07T15:29:43;-2.10;99.90
10249;DHT22;5169;50.560;9.714;2024-01-07T15:32:12;-2.10;99.90
10249;DHT22;5169;50.560;9.714;2024-01-07T15:34:40;-2.10;99.90
10249;DHT22;5169;50.560;9.714;2024-01-07T15:37:05;-2.10;99.90
10249;DHT22;5169;50.560;9.714;2024-01-07T15:39:31;-2.00;99.90
10249;DHT22;5169;50.560;9.714;2024-01-07T15:41:59;-2.10;99.90
10249;DHT22;5169;50.560;9.714;2024-01-07T15:44:27;-2.20;99.90
10249;DHT22;5169;50.560;9.714;2024-01-07T15:46:53;-2.10;99.90
10249;DHT22;5169;50.560;9.714;2024-01-07T15:49:21;-2.20;99.90
10249;DHT22;5169;50.560;9.714;2024-01-07T15:51:46;-2.20;99.90
10249;DHT22;5169;50.560;9.714;2024-01-07T15:54:12;-2.10;99.90
10249;DHT22;5169;50.560;9.714;2024-01-07T15:56:40;-2.10;99.90